Time;durP1;ratioP1;P1;durP2;ratioP2;P2;SDS_P1;SDS_P2;PMS_P1;PMS_P2;Temp;Humidity;BMP_temperature;BMP_pressure;BME280_temperature;BME280_humidity;BME280_pressure;Samples;Min_cycle;Max_cycle;Signal;HPM_P1;HPM_P2
2022/01/25 00:24:18;;;;;;;75.40;41.03;;;4.60;99.90;;;;;;5032730;28;20032;-73
2022/01/25 00:24:46;;;;;;;76.50;41.58;;;4.60;99.90;;;;;;5022282;28;20067;-73
2022/01/25 00:27:25;;;;;;;74.78;39.20;;;4.50;99.90;;;;;;5032933;28;20038;-73
2022/01/25 00:32:20;;;;;;;75.40;41.05;;;4.50;99.90;;;;;;5015475;28;20407;-73
2022/01/25 00:34:45;;;;;;;77.35;41.95;;;4.50;99.90;;;;;;5021454;28;20026;-73
2022/01/25 00:37:12;;;;;;;82.47;42.95;;;4.50;99.90;;;;;;5020426;28;20526;-73
2022/01/25 00:39:38;;;;;;;77.82;41.85;;;4.50;99.90;;;;;;5025303;28;20025;-73
2022/01/25 00:42:05;;;;;;;77.30;41.20;;;4.50;99.90;;;;;;5027586;28;20030;-73
2022/01/25 00:44:36;;;;;;;78.43;41.85;;;4.50;99.90;;;;;;5024058;28;20434;-73
2022/01/25 00:47:02;;;;;;;79.30;41.97;;;4.50;99.90;;;;;;5015370;28;20514;-73
2022/01/25 00:49:29;;;;;;;78.85;41.80;;;4.50;99.90;;;;;;5023236;28;20056;-73
2022/01/25 00:54:29;;;;;;;81.53;42.70;;;4.60;99.90;;;;;;5021804;28;20428;-73
2022/01/25 00:56:56;;;;;;;82.90;42.87;;;4.60;99.90;;;;;;5027217;28;21130;-73
2022/01/25 00:59:28;;;;;;;84.72;43.50;;;4.50;99.90;;;;;;5030815;28;20387;-73
2022/01/25 01:02:00;;;;;;;82.25;42.45;;;4.50;99.90;;;;;;5027557;28;20451;-73
2022/01/25 01:04:27;;;;;;;85.15;44.17;;;4.50;99.90;;;;;;5012601;28;20509;-73
2022/01/25 01:06:53;;;;;;;82.32;43.08;;;4.50;99.90;;;;;;5013864;28;20033;-73
2022/01/25 01:09:22;;;;;;;83.78;43.65;;;4.50;99.90;;;;;;5012235;28;20048;-72
2022/01/25 01:12:04;;;;;;;84.90;43.53;;;4.50;99.90;;;;;;5016274;28;20025;-73
2022/01/25 01:31:24;;;;;;;87.85;45.88;;;4.60;99.90;;;;;;5031758;28;20166;-72
2022/01/25 01:44:22;;;;;;;84.40;44.05;;;4.60;99.90;;;;;;5016062;28;20036;-72
2022/01/25 01:47:08;;;;;;;88.72;45.15;;;4.60;99.90;;;;;;5011673;28;20073;-72
2022/01/25 01:49:40;;;;;;;;;;;4.70;99.90;;;;;;5015986;28;20041;-72
2022/01/25 01:52:08;;;;;;;86.88;43.78;;;4.60;99.90;;;;;;5025681;28;19909;-73
2022/01/25 01:54:34;;;;;;;92.93;45.38;;;4.70;99.90;;;;;;5014712;28;20017;-73
2022/01/25 01:57:00;;;;;;;85.28;44.03;;;4.60;99.90;;;;;;5023604;28;20029;-72
2022/01/25 01:59:26;;;;;;;85.43;44.33;;;4.70;99.90;;;;;;5022034;28;20087;-72
2022/01/25 02:01:52;;;;;;;85.43;43.63;;;4.70;99.90;;;;;;5030503;28;20050;-72
2022/01/25 02:04:19;;;;;;;89.10;45.33;;;4.70;99.90;;;;;;5015979;28;20037;-72
2022/01/25 02:06:45;;;;;;;88.30;45.30;;;4.70;99.90;;;;;;5029811;28;20041;-72
2022/01/25 02:09:11;;;;;;;92.18;47.28;;;4.70;99.90;;;;;;5023414;28;20034;-72
2022/01/25 02:11:38;;;;;;;91.05;45.28;;;4.70;99.90;;;;;;5021686;28;20033;-72
2022/01/25 02:14:08;;;;;;;90.15;45.88;;;4.70;99.90;;;;;;5025259;28;20125;-73
2022/01/25 02:24:45;;;;;;;89.05;44.75;;;4.70;99.90;;;;;;5027762;28;20505;-72
2022/01/25 02:27:11;;;;;;;88.22;45.50;;;4.70;99.90;;;;;;5012869;28;20108;-72
2022/01/25 02:29:38;;;;;;;88.05;45.10;;;4.70;99.90;;;;;;5028842;28;20675;-72
2022/01/25 02:32:06;;;;;;;89.82;45.28;;;4.70;99.90;;;;;;5010974;28;20396;-72
2022/01/25 02:34:32;;;;;;;90.70;46.17;;;4.80;99.90;;;;;;5011011;28;20053;-73
2022/01/25 02:37:04;;;;;;;90.82;45.95;;;4.80;99.90;;;;;;5028935;28;20041;-72
2022/01/25 02:39:30;;;;;;;89.93;45.72;;;4.70;99.90;;;;;;5030342;28;20021;-73
2022/01/25 02:41:56;;;;;;;87.43;45.13;;;4.80;99.90;;;;;;5014443;28;20042;-72
2022/01/25 02:44:27;;;;;;;90.93;45.42;;;4.70;99.90;;;;;;5014517;28;20390;-72
2022/01/25 02:49:27;;;;;;;89.80;45.87;;;4.80;99.90;;;;;;5017763;28;20044;-72
2022/01/25 02:51:52;;;;;;;92.72;46.13;;;4.80;99.90;;;;;;5034382;28;20324;-72
2022/01/25 02:54:18;;;;;;;89.15;45.90;;;4.70;99.90;;;;;;5032717;28;20041;-73
2022/01/25 02:56:46;;;;;;;93.70;47.53;;;4.70;99.90;;;;;;5020718;28;20049;-72
2022/01/25 02:59:14;;;;;;;93.25;47.60;;;4.80;99.90;;;;;;5023399;28;20022;-72
2022/01/25 03:01:41;;;;;;;85.03;43.13;;;4.80;99.90;;;;;;5021024;28;20495;-72
2022/01/25 03:04:08;;;;;;;92.97;46.47;;;4.80;99.90;;;;;;5021631;28;20430;-72
2022/01/25 03:06:34;;;;;;;94.50;47.20;;;4.80;99.90;;;;;;5034380;28;20593;-72
2022/01/25 03:09:01;;;;;;;92.60;46.13;;;4.80;99.90;;;;;;5026445;28;20380;-72
2022/01/25 03:11:26;;;;;;;92.03;46.17;;;4.80;99.90;;;;;;5014498;28;20029;-73
2022/01/25 03:13:56;;;;;;;96.13;47.63;;;4.80;99.90;;;;;;5022518;28;20026;-72
2022/01/25 03:16:35;;;;;;;92.97;46.00;;;4.80;99.90;;;;;;5027981;28;20033;-73
2022/01/25 03:19:03;;;;;;;93.25;47.08;;;4.80;99.90;;;;;;5026557;28;20033;-73
2022/01/25 03:23:57;;;;;;;95.35;47.90;;;4.80;99.90;;;;;;5023630;28;20032;-73
2022/01/25 03:26:24;;;;;;;96.05;46.25;;;4.80;99.90;;;;;;5033424;28;20046;-73
2022/01/25 03:28:51;;;;;;;91.38;44.80;;;4.80;99.90;;;;;;5028218;28;20033;-73
2022/01/25 03:31:16;;;;;;;98.07;47.67;;;4.80;99.90;;;;;;5033291;28;20045;-72
2022/01/25 03:33:43;;;;;;;100.32;49.28;;;4.80;99.90;;;;;;5004484;28;20072;-73
2022/01/25 03:36:10;;;;;;;96.40;47.00;;;4.80;99.90;;;;;;5028632;28;20065;-72
2022/01/25 03:38:40;;;;;;;94.53;46.67;;;4.80;99.90;;;;;;5033439;28;20025;-73
2022/01/25 03:41:08;;;;;;;92.80;45.65;;;4.80;99.90;;;;;;5033388;28;20034;-73
2022/01/25 03:43:35;;;;;;;93.50;45.42;;;4.80;99.90;;;;;;5022680;28;20040;-73
2022/01/25 03:46:18;;;;;;;99.00;46.92;;;4.80;99.90;;;;;;5026799;28;20033;-73
2022/01/25 03:51:29;;;;;;;75.18;35.92;;;4.80;99.90;;;;;;5017742;28;20540;-72
2022/01/25 03:53:54;;;;;;;103.68;48.65;;;4.80;99.90;;;;;;5021076;28;20037;-73
2022/01/25 03:56:22;;;;;;;95.18;47.35;;;4.80;99.90;;;;;;5026870;28;20045;-72
2022/01/25 03:58:48;;;;;;;99.63;48.35;;;4.80;99.90;;;;;;5031279;28;20057;-73
2022/01/25 04:01:14;;;;;;;97.68;47.53;;;4.80;99.90;;;;;;5027346;28;20095;-72
2022/01/25 04:03:46;;;;;;;101.65;47.67;;;4.80;99.90;;;;;;5026410;28;20032;-72
2022/01/25 04:06:17;;;;;;;100.82;47.88;;;4.80;99.90;;;;;;5031493;28;20467;-73
2022/01/25 04:08:43;;;;;;;103.57;48.40;;;4.80;99.90;;;;;;5027803;28;20040;-72
2022/01/25 04:11:08;;;;;;;101.40;48.65;;;4.80;99.90;;;;;;5021488;28;20108;-73
2022/01/25 04:13:34;;;;;;;95.60;45.95;;;4.80;99.90;;;;;;5022192;28;20032;-73
2022/01/25 04:16:07;;;;;;;102.75;47.83;;;4.80;99.90;;;;;;5026844;28;20026;-73
2022/01/25 04:18:46;;;;;;;100.25;47.35;;;4.80;99.90;;;;;;5012921;28;20034;-72
2022/01/25 04:21:27;;;;;;;95.93;46.25;;;4.80;99.90;;;;;;5015237;28;20033;-72
2022/01/25 04:26:37;;;;;;;102.82;47.42;;;4.80;99.90;;;;;;5032505;28;20121;-72
2022/01/25 04:29:03;;;;;;;102.45;46.75;;;4.80;99.90;;;;;;5031236;28;20546;-72
2022/01/25 04:31:29;;;;;;;94.78;45.80;;;4.80;99.90;;;;;;5013007;28;20034;-72
2022/01/25 04:34:43;;;;;;;103.22;48.58;;;4.80;99.90;;;;;;5027145;28;20026;-72
2022/01/25 04:50:12;;;;;;;100.30;45.85;;;4.80;99.90;;;;;;5014530;28;20072;-73
2022/01/25 04:52:52;;;;;;;98.85;47.83;;;4.80;99.90;;;;;;5026031;28;20034;-73
2022/01/25 04:55:29;;;;;;;98.63;46.60;;;4.80;99.90;;;;;;5025134;28;20513;-73
2022/01/25 04:58:02;;;;;;;100.35;47.92;;;4.80;99.90;;;;;;5016511;28;20538;-73
2022/01/25 05:00:29;;;;;;;97.18;47.33;;;4.80;99.90;;;;;;5019610;28;20057;-72
2022/01/25 05:03:05;;;;;;;95.47;46.60;;;4.80;99.90;;;;;;5023255;28;20084;-73
2022/01/25 05:05:35;;;;;;;102.57;47.92;;;4.80;99.90;;;;;;5021736;28;20037;-73
2022/01/25 05:08:16;;;;;;;102.15;47.33;;;4.80;99.90;;;;;;5006549;28;20045;-72
2022/01/25 05:11:03;;;;;;;99.55;46.55;;;4.80;99.90;;;;;;5013079;28;20033;-72
2022/01/25 05:16:15;;;;;;;104.05;48.72;;;4.80;99.90;;;;;;5015534;28;20115;-73
2022/01/25 05:18:45;;;;;;;108.95;49.88;;;4.80;99.90;;;;;;5031361;28;20080;-72
2022/01/25 05:23:55;;;;;;;102.75;48.03;;;4.80;99.90;;;;;;5017310;28;20105;-72
2022/01/25 05:26:21;;;;;;;95.95;46.00;;;4.80;99.90;;;;;;5017836;28;20213;-73
2022/01/25 05:28:47;;;;;;;100.65;48.15;;;4.80;99.90;;;;;;5024855;28;20108;-72
2022/01/25 05:31:12;;;;;;;100.10;47.33;;;4.80;99.90;;;;;;5030389;28;20167;-72
2022/01/25 05:33:38;;;;;;;100.68;47.60;;;4.80;99.90;;;;;;5027661;28;20029;-72
2022/01/25 05:36:04;;;;;;;104.07;48.85;;;4.80;99.90;;;;;;5041307;28;20024;-73
2022/01/25 05:38:29;;;;;;;103.10;48.33;;;4.80;99.90;;;;;;5033548;28;20092;-75
2022/01/25 05:41:01;;;;;;;103.10;49.08;;;4.80;99.90;;;;;;5033274;28;20013;-72
2022/01/25 05:46:13;;;;;;;98.82;47.10;;;4.80;99.90;;;;;;5031773;28;20041;-72
2022/01/25 05:48:39;;;;;;;97.97;47.63;;;4.80;99.90;;;;;;5033227;28;20041;-72
2022/01/25 05:51:05;;;;;;;100.10;47.33;;;4.80;99.90;;;;;;5032806;28;20014;-72
2022/01/25 05:53:31;;;;;;;100.28;47.40;;;4.80;99.90;;;;;;5032547;28;20441;-73
2022/01/25 05:55:57;;;;;;;100.53;47.60;;;4.80;99.90;;;;;;5032718;28;20120;-72
2022/01/25 05:58:23;;;;;;;100.85;46.88;;;4.80;99.90;;;;;;5036113;28;20033;-72
2022/01/25 06:00:49;;;;;;;99.30;46.97;;;4.80;99.90;;;;;;5034913;28;20050;-72
2022/01/25 06:03:15;;;;;;;99.70;46.28;;;4.80;99.90;;;;;;5038195;28;20025;-73
2022/01/25 06:05:41;;;;;;;96.28;46.67;;;4.80;99.90;;;;;;5030420;28;20084;-72
2022/01/25 06:08:07;;;;;;;97.93;47.15;;;4.80;99.90;;;;;;5032160;28;20056;-72
2022/01/25 06:10:33;;;;;;;105.03;48.83;;;4.80;99.90;;;;;;5029847;28;20018;-73
2022/01/25 06:12:59;;;;;;;93.88;46.13;;;4.80;99.90;;;;;;5028901;28;20049;-72
2022/01/25 06:15:25;;;;;;;90.38;44.70;;;4.80;99.90;;;;;;5033484;28;20067;-72
2022/01/25 06:17:51;;;;;;;93.30;45.03;;;4.80;99.90;;;;;;5033780;28;20030;-72
2022/01/25 06:20:17;;;;;;;98.65;47.03;;;4.80;99.90;;;;;;5029520;28;20029;-72
2022/01/25 06:22:43;;;;;;;97.63;46.97;;;4.80;99.90;;;;;;5027011;28;20532;-72
2022/01/25 06:25:11;;;;;;;95.55;46.72;;;4.80;99.90;;;;;;5043782;28;20025;-72
2022/01/25 06:27:42;;;;;;;93.28;45.65;;;4.80;99.90;;;;;;5005965;28;20442;-72
2022/01/25 06:30:13;;;;;;;95.00;45.95;;;4.80;99.90;;;;;;5025760;28;20045;-72
2022/01/25 06:32:39;;;;;;;99.68;47.10;;;4.80;99.90;;;;;;5015892;28;20030;-72
2022/01/25 06:35:05;;;;;;;99.45;47.70;;;4.80;99.90;;;;;;5030326;28;20052;-72
2022/01/25 06:37:31;;;;;;;104.65;47.67;;;4.80;99.90;;;;;;5028499;28;20145;-72
2022/01/25 06:39:58;;;;;;;105.05;50.13;;;4.80;99.90;;;;;;5032178;28;20472;-73
2022/01/25 06:42:29;;;;;;;104.10;48.20;;;4.80;99.90;;;;;;5032184;28;20026;-72
2022/01/25 06:44:58;;;;;;;104.85;49.40;;;4.80;99.90;;;;;;5038751;28;20051;-72
2022/01/25 06:47:23;;;;;;;104.35;48.83;;;4.80;99.90;;;;;;5035448;28;20025;-72
2022/01/25 06:49:49;;;;;;;104.00;47.05;;;4.80;99.90;;;;;;5037025;28;20044;-73
2022/01/25 06:52:14;;;;;;;107.20;48.97;;;4.80;99.90;;;;;;5039694;28;20101;-73
2022/01/25 06:54:40;;;;;;;99.88;47.88;;;4.80;99.90;;;;;;5035231;28;20029;-73
2022/01/25 06:57:06;;;;;;;101.45;48.08;;;4.80;99.90;;;;;;5030619;28;20387;-73
2022/01/25 06:59:32;;;;;;;98.38;46.95;;;4.80;99.90;;;;;;5029805;28;20029;-73
2022/01/25 07:01:57;;;;;;;100.07;47.92;;;4.80;99.90;;;;;;5029946;28;20036;-73
2022/01/25 07:04:23;;;;;;;99.88;47.35;;;4.80;99.90;;;;;;5023028;28;20033;-72
2022/01/25 07:06:48;;;;;;;103.53;48.78;;;4.80;99.90;;;;;;5032527;28;20045;-72
2022/01/25 07:09:14;;;;;;;99.50;48.55;;;4.80;99.90;;;;;;5027251;28;20029;-73
2022/01/25 07:11:40;;;;;;;94.05;46.65;;;4.80;99.90;;;;;;5026777;28;20558;-72
2022/01/25 07:14:05;;;;;;;103.60;49.30;;;4.80;99.90;;;;;;5030406;28;20108;-73
2022/01/25 07:16:31;;;;;;;104.72;48.53;;;4.70;99.90;;;;;;5037734;28;20026;-72
2022/01/25 07:18:56;;;;;;;101.78;48.00;;;4.70;99.90;;;;;;5013717;28;20030;-73
2022/01/25 07:21:22;;;;;;;100.75;48.20;;;4.70;99.90;;;;;;5033803;28;20033;-73
2022/01/25 07:23:47;;;;;;;99.10;47.30;;;4.70;99.90;;;;;;5037423;28;20037;-73
2022/01/25 07:26:13;;;;;;;100.72;47.17;;;4.80;99.90;;;;;;5030235;28;20048;-73
2022/01/25 07:28:39;;;;;;;99.30;47.35;;;4.70;99.90;;;;;;5033377;28;20030;-73
2022/01/25 07:31:05;;;;;;;100.13;46.95;;;4.70;99.90;;;;;;5033452;28;20041;-73
2022/01/25 07:33:30;;;;;;;98.55;46.78;;;4.60;99.90;;;;;;5016359;28;20535;-73
2022/01/25 07:35:56;;;;;;;95.78;45.83;;;4.70;99.90;;;;;;5032383;28;20026;-73
2022/01/25 07:38:22;;;;;;;96.80;46.63;;;4.60;99.90;;;;;;5032958;28;20116;-73
2022/01/25 07:40:48;;;;;;;99.53;46.55;;;4.60;99.90;;;;;;5032971;28;20025;-73
2022/01/25 07:43:14;;;;;;;98.18;47.22;;;4.70;99.90;;;;;;5036651;28;20021;-73
2022/01/25 07:45:41;;;;;;;97.55;46.50;;;4.70;99.90;;;;;;5047474;28;20098;-73
2022/01/25 07:48:09;;;;;;;99.38;46.75;;;4.70;99.90;;;;;;5028286;28;20503;-73
2022/01/25 07:50:36;;;;;;;98.43;47.45;;;4.70;99.90;;;;;;5023135;28;20485;-73
2022/01/25 07:53:02;;;;;;;92.43;45.47;;;4.70;99.90;;;;;;5032710;28;20483;-73
2022/01/25 07:55:28;;;;;;;96.53;45.90;;;4.70;99.90;;;;;;5032551;28;20036;-73
2022/01/25 07:57:53;;;;;;;98.90;46.67;;;4.70;99.90;;;;;;5033094;28;20034;-73
2022/01/25 08:00:20;;;;;;;99.97;47.30;;;4.70;99.90;;;;;;5031812;28;20080;-74
2022/01/25 08:02:47;;;;;;;99.32;45.80;;;4.70;99.90;;;;;;5032782;28;20359;-73
2022/01/25 08:05:14;;;;;;;99.28;46.65;;;4.70;99.90;;;;;;5031965;28;20022;-74
2022/01/25 08:07:40;;;;;;;100.10;47.50;;;4.70;99.90;;;;;;5032204;28;20104;-73
2022/01/25 08:10:06;;;;;;;100.38;47.58;;;4.70;99.90;;;;;;5027937;28;20056;-74
2022/01/25 08:12:31;;;;;;;103.28;47.10;;;4.70;99.90;;;;;;5042554;28;20074;-74
2022/01/25 08:14:58;;;;;;;103.07;48.35;;;4.70;99.90;;;;;;5052133;28;20025;-74
2022/01/25 08:17:24;;;;;;;104.82;47.75;;;4.70;99.90;;;;;;5022345;28;20104;-74
2022/01/25 08:19:50;;;;;;;102.22;46.53;;;4.70;99.90;;;;;;5031492;28;20159;-74
2022/01/25 08:22:18;;;;;;;101.13;45.83;;;4.70;99.90;;;;;;5032286;28;20026;-74
2022/01/25 08:24:43;;;;;;;93.78;44.88;;;4.70;99.90;;;;;;5018592;28;20419;-74
2022/01/25 08:27:09;;;;;;;99.28;47.28;;;4.70;99.90;;;;;;5012191;28;20038;-74
2022/01/25 08:29:34;;;;;;;96.63;45.53;;;4.70;99.90;;;;;;5020015;28;20029;-73
2022/01/25 08:32:00;;;;;;;97.88;47.10;;;4.70;99.90;;;;;;5022198;28;20104;-73
2022/01/25 08:34:25;;;;;;;93.63;45.17;;;4.70;99.90;;;;;;5031206;28;20054;-73
2022/01/25 08:36:51;;;;;;;101.80;46.80;;;4.70;99.90;;;;;;5028157;28;20394;-74
2022/01/25 08:39:16;;;;;;;102.20;48.33;;;4.70;99.90;;;;;;5031666;28;20022;-73
2022/01/25 08:41:44;;;;;;;101.65;46.75;;;4.80;99.90;;;;;;5031770;28;20395;-74
2022/01/25 08:44:10;;;;;;;100.60;47.58;;;4.80;99.90;;;;;;5030015;28;20029;-73
2022/01/25 08:46:35;;;;;;;100.75;47.05;;;4.80;99.90;;;;;;5012243;28;20041;-74
2022/01/25 08:49:01;;;;;;;95.63;45.80;;;4.80;99.90;;;;;;5012445;28;20387;-74
2022/01/25 08:51:27;;;;;;;105.22;47.95;;;4.80;99.90;;;;;;5012048;28;20022;-73
2022/01/25 08:53:52;;;;;;;106.75;48.05;;;4.80;99.90;;;;;;5012082;28;20022;-74
2022/01/25 08:56:18;;;;;;;99.88;47.33;;;4.80;99.90;;;;;;5012200;28;20038;-73
2022/01/25 08:58:44;;;;;;;107.72;50.58;;;4.90;99.90;;;;;;5019116;28;20108;-74
2022/01/25 09:01:09;;;;;;;104.72;47.80;;;4.90;99.90;;;;;;5017599;28;20148;-73
2022/01/25 09:03:36;;;;;;;106.90;48.97;;;4.90;99.90;;;;;;5022178;28;20024;-73
2022/01/25 09:06:03;;;;;;;103.80;48.10;;;4.90;99.90;;;;;;5033503;28;20021;-73
2022/01/25 09:08:29;;;;;;;109.85;49.40;;;4.90;99.90;;;;;;5032616;28;20108;-73
2022/01/25 09:10:59;;;;;;;104.97;48.17;;;4.90;99.90;;;;;;5036358;28;20555;-73
2022/01/25 09:13:25;;;;;;;111.47;48.72;;;4.90;99.90;;;;;;5038515;28;20026;-73
2022/01/25 09:15:51;;;;;;;103.35;47.63;;;4.90;99.90;;;;;;5033344;28;20068;-74
2022/01/25 09:18:17;;;;;;;102.80;48.05;;;4.90;99.90;;;;;;5032022;28;20509;-74
2022/01/25 09:20:43;;;;;;;104.97;48.60;;;5.00;99.90;;;;;;5031355;28;20159;-73
2022/01/25 09:23:09;;;;;;;108.65;49.35;;;5.00;99.90;;;;;;5031454;28;20022;-73
2022/01/25 09:25:35;;;;;;;102.13;47.35;;;5.00;99.90;;;;;;5030996;28;20025;-73
2022/01/25 09:28:01;;;;;;;105.32;47.30;;;5.00;99.90;;;;;;5031298;28;20490;-74
2022/01/25 09:30:28;;;;;;;107.65;48.83;;;5.10;99.90;;;;;;5031157;28;20036;-73
2022/01/25 09:32:54;;;;;;;104.53;47.63;;;5.10;99.90;;;;;;5031032;28;20014;-73
2022/01/25 09:35:19;;;;;;;108.05;50.17;;;5.10;99.90;;;;;;5030323;28;20403;-73
2022/01/25 09:37:45;;;;;;;103.43;47.20;;;5.10;99.90;;;;;;5030849;28;20109;-73
2022/01/25 09:40:12;;;;;;;110.28;49.67;;;5.10;99.90;;;;;;5030934;28;20050;-74
2022/01/25 09:42:38;;;;;;;109.53;49.15;;;5.10;99.90;;;;;;5030642;28;20049;-74
2022/01/25 09:45:05;;;;;;;105.07;48.00;;;5.10;99.90;;;;;;5030212;28;20056;-73
2022/01/25 09:47:31;;;;;;;117.03;49.53;;;5.10;99.90;;;;;;5030174;28;20033;-74
2022/01/25 09:49:56;;;;;;;106.22;49.08;;;5.20;99.90;;;;;;5029382;28;20049;-73
2022/01/25 09:52:22;;;;;;;107.32;49.65;;;5.20;99.90;;;;;;5030885;28;20025;-73
2022/01/25 09:55:01;;;;;;;108.00;48.53;;;5.20;99.90;;;;;;5030580;28;20032;-74
2022/01/25 09:57:27;;;;;;;108.35;48.67;;;5.20;99.90;;;;;;5031035;28;20026;-73
2022/01/25 09:59:55;;;;;;;102.15;47.25;;;5.20;99.90;;;;;;5025463;28;20054;-73
2022/01/25 10:02:40;;;;;;;102.03;47.47;;;5.20;99.90;;;;;;5011018;28;20045;-74
2022/01/25 10:05:32;;;;;;;106.00;48.75;;;5.20;99.90;;;;;;5010933;28;20037;-73
2022/01/25 10:08:06;;;;;;;109.60;47.85;;;5.20;99.90;;;;;;5012367;28;20538;-74
2022/01/25 10:10:35;;;;;;;75.97;34.38;;;5.20;99.90;;;;;;5022978;28;20383;-74
2022/01/25 10:13:07;;;;;;;110.38;48.17;;;5.30;99.90;;;;;;5030579;28;20049;-74
2022/01/25 10:15:32;;;;;;;107.97;47.40;;;5.30;99.90;;;;;;5014890;28;20060;-74
2022/01/25 10:17:58;;;;;;;106.32;48.70;;;5.30;99.90;;;;;;5030793;28;20356;-73
2022/01/25 10:20:46;;;;;;;106.60;47.67;;;5.30;99.90;;;;;;5031322;28;20034;-73
2022/01/25 10:23:18;;;;;;;108.78;48.35;;;5.30;99.90;;;;;;5030548;28;20021;-73
2022/01/25 10:25:46;;;;;;;105.38;47.92;;;5.40;99.90;;;;;;5028411;28;20450;-73
2022/01/25 10:28:14;;;;;;;103.35;47.50;;;5.30;99.90;;;;;;5032486;28;20364;-74
2022/01/25 10:30:52;;;;;;;106.05;48.38;;;5.40;99.90;;;;;;5030620;28;20030;-73
2022/01/25 10:33:39;;;;;;;106.68;49.22;;;5.40;99.90;;;;;;5023416;28;20510;-73
2022/01/25 10:36:14;;;;;;;105.28;47.20;;;5.40;99.90;;;;;;5034729;28;20071;-74
2022/01/25 10:38:42;;;;;;;100.25;46.20;;;5.40;99.90;;;;;;5029407;28;20345;-73
2022/01/25 10:41:12;;;;;;;101.78;46.60;;;5.40;99.90;;;;;;5011549;28;20033;-74
2022/01/25 10:43:39;;;;;;;108.10;48.67;;;5.40;99.90;;;;;;5029001;28;20542;-73
2022/01/25 10:46:15;;;;;;;106.60;48.30;;;5.40;99.90;;;;;;5029836;28;20321;-74
2022/01/25 10:48:49;;;;;;;108.95;49.22;;;5.40;99.90;;;;;;5037894;28;20094;-75
2022/01/25 10:51:42;;;;;;;104.03;47.40;;;5.40;99.90;;;;;;5037798;28;20491;-74
2022/01/25 10:54:21;;;;;;;107.85;48.95;;;5.50;99.90;;;;;;5026327;28;20037;-74
2022/01/25 10:56:53;;;;;;;103.13;47.63;;;5.40;99.90;;;;;;5030485;28;20064;-73
2022/01/25 10:59:39;;;;;;;103.97;48.78;;;5.40;99.90;;;;;;5033710;28;20033;-73
2022/01/25 11:02:06;;;;;;;102.95;47.67;;;5.40;99.90;;;;;;4992350;28;20057;-73
2022/01/25 11:04:38;;;;;;;104.65;48.63;;;5.40;99.90;;;;;;5008103;28;20027;-73
2022/01/25 11:07:08;;;;;;;103.80;47.40;;;5.30;99.90;;;;;;5014431;28;20109;-73
2022/01/25 11:09:45;;;;;;;100.28;47.47;;;5.30;99.90;;;;;;5014171;28;20069;-74
2022/01/25 11:12:17;;;;;;;100.63;46.80;;;5.30;99.90;;;;;;5014098;28;20021;-73
2022/01/25 11:14:50;;;;;;;103.18;48.03;;;5.30;99.90;;;;;;4995253;28;20026;-74
2022/01/25 11:17:16;;;;;;;105.90;47.65;;;5.30;99.90;;;;;;5012567;28;20037;-74
2022/01/25 11:19:41;;;;;;;104.30;48.08;;;5.30;99.90;;;;;;4994157;28;20472;-74
2022/01/25 11:22:10;;;;;;;101.60;47.33;;;5.30;99.90;;;;;;4992945;28;20041;-73
2022/01/25 11:24:37;;;;;;;100.03;46.95;;;5.30;99.90;;;;;;5012025;28;20033;-73
2022/01/25 11:27:06;;;;;;;108.53;48.90;;;5.40;99.90;;;;;;5015172;28;20041;-74
2022/01/25 11:29:35;;;;;;;113.22;50.72;;;5.40;99.90;;;;;;5020050;28;20523;-74
2022/01/25 11:32:13;;;;;;;112.00;49.20;;;5.40;99.90;;;;;;5024359;28;20034;-74
2022/01/25 11:34:41;;;;;;;111.05;48.95;;;5.50;99.90;;;;;;5022616;28;20030;-75
2022/01/25 11:37:08;;;;;;;114.45;49.30;;;5.50;99.90;;;;;;5016879;28;20382;-73
2022/01/25 11:39:38;;;;;;;109.35;48.65;;;5.50;99.90;;;;;;5018003;28;20388;-73
2022/01/25 11:42:05;;;;;;;115.80;50.10;;;5.50;99.90;;;;;;5021436;28;20025;-73
2022/01/25 11:44:32;;;;;;;109.07;48.22;;;5.50;99.90;;;;;;5033321;28;20098;-73
2022/01/25 11:47:07;;;;;;;111.90;47.78;;;5.50;99.90;;;;;;5032955;28;20536;-73
2022/01/25 11:49:33;;;;;;;109.03;47.75;;;5.50;99.90;;;;;;5011712;28;20129;-73
2022/01/25 11:52:12;;;;;;;105.90;46.63;;;5.50;99.90;;;;;;4993481;28;20046;-73
2022/01/25 11:54:37;;;;;;;115.18;49.70;;;5.60;99.90;;;;;;4993652;28;20041;-73
2022/01/25 11:57:20;;;;;;;106.45;46.85;;;5.50;99.90;;;;;;4993672;28;20416;-74
2022/01/25 11:59:59;;;;;;;106.28;46.92;;;5.60;99.90;;;;;;4998005;28;20031;-74
2022/01/25 12:02:46;;;;;;;111.03;47.70;;;5.60;99.90;;;;;;5033089;28;20086;-73
2022/01/25 12:05:15;;;;;;;105.88;46.15;;;5.60;99.90;;;;;;5032754;28;20476;-73
2022/01/25 12:08:11;;;;;;;107.65;46.78;;;5.60;99.90;;;;;;5032316;28;20418;-74
2022/01/25 12:10:41;;;;;;;106.18;46.75;;;5.50;99.90;;;;;;5030565;28;20483;-73
2022/01/25 12:13:17;;;;;;;107.97;47.78;;;5.40;99.90;;;;;;5015512;28;20510;-73
2022/01/25 12:15:44;;;;;;;107.75;47.08;;;5.40;99.90;;;;;;5013777;28;20056;-73
2022/01/25 12:18:48;;;;;;;111.70;48.70;;;5.50;99.90;;;;;;5013861;28;20022;-73
2022/01/25 12:21:14;;;;;;;109.65;47.63;;;5.50;99.90;;;;;;5020132;28;20426;-73
2022/01/25 12:23:45;;;;;;;117.80;47.40;;;5.50;99.90;;;;;;5031164;28;20071;-74
2022/01/25 12:26:17;;;;;;;105.50;46.92;;;5.60;99.90;;;;;;5027118;28;20052;-74
2022/01/25 12:28:46;;;;;;;105.40;48.05;;;5.60;99.90;;;;;;5026976;28;20053;-73
2022/01/25 12:31:16;;;;;;;111.15;48.95;;;5.60;99.90;;;;;;5033613;28;20033;-73
2022/01/25 12:33:43;;;;;;;114.25;49.17;;;5.60;99.90;;;;;;5033257;28;20079;-73
2022/01/25 12:36:09;;;;;;;116.85;49.55;;;5.60;99.90;;;;;;5032198;28;20033;-73
2022/01/25 12:38:38;;;;;;;110.85;48.85;;;5.60;99.90;;;;;;5034859;28;20022;-73
2022/01/25 12:41:20;;;;;;;108.82;48.50;;;5.60;99.90;;;;;;5039825;28;20022;-73
2022/01/25 12:44:02;;;;;;;108.55;47.90;;;5.60;99.90;;;;;;5041501;28;20035;-73
2022/01/25 12:46:32;;;;;;;106.95;48.35;;;5.70;99.90;;;;;;5041211;28;20033;-74
2022/01/25 12:49:00;;;;;;;109.78;48.92;;;5.70;99.90;;;;;;5043256;28;20065;-73
2022/01/25 12:51:30;;;;;;;111.38;48.17;;;5.70;99.90;;;;;;5041837;28;20075;-73
2022/01/25 12:53:59;;;;;;;105.25;47.45;;;5.70;99.90;;;;;;5040411;28;20461;-73
2022/01/25 12:56:27;;;;;;;107.90;47.83;;;5.70;99.90;;;;;;5035008;28;20057;-74
2022/01/25 12:58:59;;;;;;;104.53;47.08;;;5.70;99.90;;;;;;5032383;28;20375;-73
2022/01/25 13:01:26;;;;;;;108.60;48.05;;;5.70;99.90;;;;;;5025690;28;20041;-73
2022/01/25 13:04:01;;;;;;;105.53;47.78;;;5.80;99.90;;;;;;5021368;28;20403;-73
2022/01/25 13:06:28;;;;;;;111.22;48.95;;;5.80;99.90;;;;;;5012829;28;20021;-73
2022/01/25 13:09:20;;;;;;;110.13;47.05;;;5.80;99.90;;;;;;5027483;28;20083;-74
2022/01/25 13:17:17;;;;;;;110.10;47.53;;;5.80;99.90;;;;;;5023695;28;20048;-73
2022/01/25 13:20:03;;;;;;;106.72;46.65;;;5.80;99.90;;;;;;5031489;28;20033;-73
2022/01/25 13:22:41;;;;;;;115.10;48.88;;;5.80;99.90;;;;;;5029494;28;20037;-73
2022/01/25 13:25:27;;;;;;;108.95;46.95;;;5.80;99.90;;;;;;5030837;28;20041;-73
2022/01/25 13:27:58;;;;;;;106.75;46.97;;;5.80;99.90;;;;;;5026104;28;20021;-73
2022/01/25 13:30:41;;;;;;;107.30;47.88;;;5.80;99.90;;;;;;5013726;28;20064;-73
2022/01/25 13:33:13;;;;;;;109.15;47.80;;;5.80;99.90;;;;;;5022818;28;20041;-73
2022/01/25 13:35:42;;;;;;;117.90;49.38;;;5.80;99.90;;;;;;5033371;28;20075;-73
2022/01/25 13:38:19;;;;;;;108.82;48.63;;;5.80;99.90;;;;;;5033165;28;20087;-73
2022/01/25 13:46:30;;;;;;;111.90;49.00;;;5.80;99.90;;;;;;5016801;28;20040;-73
2022/01/25 13:49:04;;;;;;;111.18;49.15;;;5.80;99.90;;;;;;5014161;28;20105;-73
2022/01/25 13:51:41;;;;;;;109.72;49.28;;;5.80;99.90;;;;;;5032232;28;20364;-73
2022/01/25 13:54:08;;;;;;;114.82;50.85;;;5.80;99.90;;;;;;5031982;28;20121;-73
2022/01/25 13:56:35;;;;;;;115.10;49.97;;;5.80;99.90;;;;;;5030946;28;20033;-73
2022/01/25 13:59:03;;;;;;;113.88;50.35;;;5.80;99.90;;;;;;5012891;28;20033;-73
2022/01/25 14:01:30;;;;;;;112.47;49.65;;;5.80;99.90;;;;;;5028206;28;20033;-74
2022/01/25 14:04:02;;;;;;;113.43;49.05;;;5.80;99.90;;;;;;5017841;28;20120;-74
2022/01/25 14:06:30;;;;;;;115.78;49.72;;;5.80;99.90;;;;;;5023262;28;20038;-73
2022/01/25 14:09:03;;;;;;;110.97;49.33;;;5.80;99.90;;;;;;5012852;28;20034;-74
2022/01/25 14:11:37;;;;;;;116.30;49.85;;;5.80;99.90;;;;;;5022963;28;20026;-73
2022/01/25 14:25:09;;;;;;;114.18;49.53;;;5.80;99.90;;;;;;5022039;28;20183;-73
2022/01/25 14:27:49;;;;;;;119.28;52.13;;;5.70;99.90;;;;;;5027707;28;20535;-74
2022/01/25 14:30:19;;;;;;;116.50;50.40;;;5.80;99.90;;;;;;5027938;28;20087;-73
2022/01/25 14:33:02;;;;;;;118.60;52.08;;;5.80;99.90;;;;;;5026182;28;20661;-73
2022/01/25 14:35:32;;;;;;;115.47;50.55;;;5.80;99.90;;;;;;5031640;28;20029;-73
2022/01/25 14:37:59;;;;;;;117.13;49.95;;;5.80;99.90;;;;;;5018412;28;20056;-73